sensor_id;sensor_type;location;lat;lon;timestamp;pressure;altitude;pressure_sealevel;temperature;humidity
27805;BME280;15183;51.350;11.102;2023-02-14T00:00:48;102142.28;;;8.24;61.35
27805;BME280;15183;51.350;11.102;2023-02-14T00:03:15;102108.34;;;7.93;61.17
27805;BME280;15183;51.350;11.102;2023-02-14T00:05:41;102166.34;;;8.39;61.09
27805;BME280;15183;51.350;11.102;2023-02-14T00:08:08;102130.34;;;8.20;61.69
27805;BME280;15183;51.350;11.102;2023-02-14T00:10:34;102128.03;;;8.17;61.66
27805;BME280;15183;51.350;11.102;2023-02-14T00:13:00;102134.81;;;8.20;61.69
27805;BME280;15183;51.350;11.102;2023-02-14T00:15:27;102142.63;;;8.30;62.04
27805;BME280;15183;51.350;11.102;2023-02-14T00:17:56;102100.88;;;8.07;61.78
27805;BME280;15183;51.350;11.102;2023-02-14T00:20:26;102114.50;;;8.20;61.71
27805;BME280;15183;51.350;11.102;2023-02-14T00:22:53;102150.44;;;8.49;61.89
27805;BME280;15183;51.350;11.102;2023-02-14T00:25:19;102154.72;;;8.50;61.84
27805;BME280;15183;51.350;11.102;2023-02-14T00:27:46;102159.25;;;8.58;62.01
27805;BME280;15183;51.350;11.102;2023-02-14T00:30:13;102157.28;;;8.60;62.01
27805;BME280;15183;51.350;11.102;2023-02-14T00:32:40;102110.50;;;8.34;61.75
27805;BME280;15183;51.350;11.102;2023-02-14T00:35:08;102145.81;;;8.51;61.97
27805;BME280;15183;51.350;11.102;2023-02-14T00:37:35;102145.38;;;8.56;62.01
27805;BME280;15183;51.350;11.102;2023-02-14T00:40:02;102109.97;;;8.31;62.05
27805;BME280;15183;51.350;11.102;2023-02-14T00:42:28;102155.41;;;8.52;61.97
27805;BME280;15183;51.350;11.102;2023-02-14T00:44:55;102120.84;;;8.28;62.12
27805;BME280;15183;51.350;11.102;2023-02-14T00:47:21;102157.06;;;8.35;62.40
27805;BME280;15183;51.350;11.102;2023-02-14T00:49:48;102107.44;;;8.03;62.59
27805;BME280;15183;51.350;11.102;2023-02-14T00:52:14;102094.88;;;7.78;62.53
27805;BME280;15183;51.350;11.102;2023-02-14T00:54:41;102154.72;;;7.96;62.15
27805;BME280;15183;51.350;11.102;2023-02-14T00:57:07;102164.97;;;7.99;62.69
27805;BME280;15183;51.350;11.102;2023-02-14T00:59:33;102091.53;;;7.58;62.45
27805;BME280;15183;51.350;11.102;2023-02-14T01:02:00;102130.53;;;7.82;62.53
27805;BME280;15183;51.350;11.102;2023-02-14T01:04:26;102131.19;;;7.85;62.99
27805;BME280;15183;51.350;11.102;2023-02-14T01:06:53;102143.88;;;7.99;62.86
27805;BME280;15183;51.350;11.102;2023-02-14T01:09:19;102154.34;;;8.09;62.83
27805;BME280;15183;51.350;11.102;2023-02-14T01:11:45;102133.84;;;8.03;62.73
27805;BME280;15183;51.350;11.102;2023-02-14T01:14:13;102150.00;;;8.18;62.75
27805;BME280;15183;51.350;11.102;2023-02-14T01:16:40;102164.91;;;8.27;62.48
27805;BME280;15183;51.350;11.102;2023-02-14T01:19:06;102160.16;;;8.31;62.88
27805;BME280;15183;51.350;11.102;2023-02-14T01:21:34;102087.63;;;7.80;62.64
27805;BME280;15183;51.350;11.102;2023-02-14T01:24:04;102154.44;;;8.17;62.82
27805;BME280;15183;51.350;11.102;2023-02-14T01:26:32;102111.81;;;7.94;62.55
27805;BME280;15183;51.350;11.102;2023-02-14T01:28:58;102141.97;;;8.09;62.76
27805;BME280;15183;51.350;11.102;2023-02-14T01:31:29;102143.50;;;8.12;62.64
27805;BME280;15183;51.350;11.102;2023-02-14T01:33:56;102088.88;;;7.76;62.62
27805;BME280;15183;51.350;11.102;2023-02-14T01:36:44;102152.22;;;8.13;62.55
27805;BME280;15183;51.350;11.102;2023-02-14T01:39:13;102160.38;;;8.01;62.54
27805;BME280;15183;51.350;11.102;2023-02-14T01:41:42;102124.31;;;7.74;62.83
27805;BME280;15183;51.350;11.102;2023-02-14T01:46:45;102084.91;;;7.26;63.30
27805;BME280;15183;51.350;11.102;2023-02-14T01:49:24;102154.63;;;7.70;63.66
27805;BME280;15183;51.350;11.102;2023-02-14T01:54:24;102125.88;;;7.48;63.36
27805;BME280;15183;51.350;11.102;2023-02-14T01:56:59;102092.31;;;7.13;63.39
27805;BME280;15183;51.350;11.102;2023-02-14T01:59:33;102140.63;;;7.41;63.55
27805;BME280;15183;51.350;11.102;2023-02-14T02:02:01;102128.69;;;7.37;63.68
27805;BME280;15183;51.350;11.102;2023-02-14T02:04:33;102137.84;;;7.43;63.89
27805;BME280;15183;51.350;11.102;2023-02-14T02:07:06;102139.19;;;7.47;63.66
27805;BME280;15183;51.350;11.102;2023-02-14T02:09:45;102117.25;;;7.28;63.98
27805;BME280;15183;51.350;11.102;2023-02-14T02:12:12;102114.50;;;7.20;64.04
27805;BME280;15183;51.350;11.102;2023-02-14T02:14:40;102135.31;;;7.23;63.98
27805;BME280;15183;51.350;11.102;2023-02-14T02:24:10;102151.31;;;7.39;64.19
27805;BME280;15183;51.350;11.102;2023-02-14T02:27:49;102148.69;;;7.39;64.16
27805;BME280;15183;51.350;11.102;2023-02-14T02:30:14;102153.06;;;7.49;64.22
27805;BME280;15183;51.350;11.102;2023-02-14T02:39:19;102132.50;;;7.24;63.93
27805;BME280;15183;51.350;11.102;2023-02-14T02:42:16;102121.91;;;7.06;64.09
27805;BME280;15183;51.350;11.102;2023-02-14T02:45:29;102122.47;;;7.00;64.40
27805;BME280;15183;51.350;11.102;2023-02-14T02:48:13;102125.25;;;6.99;64.49
27805;BME280;15183;51.350;11.102;2023-02-14T02:50:45;102095.19;;;6.91;64.72
27805;BME280;15183;51.350;11.102;2023-02-14T02:53:53;102107.47;;;7.01;64.55
27805;BME280;15183;51.350;11.102;2023-02-14T02:56:29;102091.56;;;6.92;64.37
27805;BME280;15183;51.350;11.102;2023-02-14T02:59:31;102122.75;;;7.07;64.91
27805;BME280;15183;51.350;11.102;2023-02-14T03:02:20;102096.13;;;7.00;64.56
27805;BME280;15183;51.350;11.102;2023-02-14T03:04:55;102107.44;;;7.10;64.91
27805;BME280;15183;51.350;11.102;2023-02-14T03:07:37;102111.63;;;7.13;64.94
27805;BME280;15183;51.350;11.102;2023-02-14T03:10:16;102055.69;;;6.81;64.38
27805;BME280;15183;51.350;11.102;2023-02-14T03:13:12;102108.59;;;7.08;64.43
27805;BME280;15183;51.350;11.102;2023-02-14T03:16:55;102107.94;;;6.96;64.88
27805;BME280;15183;51.350;11.102;2023-02-14T03:19:24;102095.47;;;6.88;65.06
27805;BME280;15183;51.350;11.102;2023-02-14T03:22:26;102087.72;;;6.87;65.15
27805;BME280;15183;51.350;11.102;2023-02-14T03:25:10;102099.34;;;6.94;65.10
27805;BME280;15183;51.350;11.102;2023-02-14T03:27:53;102082.31;;;6.78;65.18
27805;BME280;15183;51.350;11.102;2023-02-14T03:30:56;102099.25;;;6.86;65.22
27805;BME280;15183;51.350;11.102;2023-02-14T03:36:09;102095.03;;;7.03;65.45
27805;BME280;15183;51.350;11.102;2023-02-14T03:41:56;102111.63;;;7.41;65.10
27805;BME280;15183;51.350;11.102;2023-02-14T03:44:26;102095.34;;;7.46;65.21
27805;BME280;15183;51.350;11.102;2023-02-14T03:47:11;102103.22;;;7.74;64.84
27805;BME280;15183;51.350;11.102;2023-02-14T03:49:47;102118.91;;;7.93;64.91
27805;BME280;15183;51.350;11.102;2023-02-14T03:52:16;102063.78;;;7.72;64.56
27805;BME280;15183;51.350;11.102;2023-02-14T03:54:45;102108.56;;;8.18;64.31
27805;BME280;15183;51.350;11.102;2023-02-14T03:57:20;102072.28;;;8.02;64.09
27805;BME280;15183;51.350;11.102;2023-02-14T03:59:49;102094.91;;;8.23;64.24
27805;BME280;15183;51.350;11.102;2023-02-14T04:02:32;102101.38;;;8.29;63.52
27805;BME280;15183;51.350;11.102;2023-02-14T04:05:04;102113.00;;;8.36;63.74
27805;BME280;15183;51.350;11.102;2023-02-14T04:07:50;102111.63;;;8.32;64.04
27805;BME280;15183;51.350;11.102;2023-02-14T04:10:18;102118.97;;;8.38;63.93
27805;BME280;15183;51.350;11.102;2023-02-14T04:12:46;102111.03;;;8.38;64.07
27805;BME280;15183;51.350;11.102;2023-02-14T04:15:13;102096.09;;;8.29;63.86
27805;BME280;15183;51.350;11.102;2023-02-14T04:17:40;102094.97;;;8.31;63.79
27805;BME280;15183;51.350;11.102;2023-02-14T04:20:26;102091.47;;;8.31;64.11
27805;BME280;15183;51.350;11.102;2023-02-14T04:22:53;102086.72;;;8.34;63.91
27805;BME280;15183;51.350;11.102;2023-02-14T04:25:20;102097.88;;;8.46;63.97
27805;BME280;15183;51.350;11.102;2023-02-14T04:27:47;102094.69;;;8.43;63.86
27805;BME280;15183;51.350;11.102;2023-02-14T04:30:14;102078.81;;;8.34;63.60
27805;BME280;15183;51.350;11.102;2023-02-14T04:32:43;102076.53;;;8.39;63.78
27805;BME280;15183;51.350;11.102;2023-02-14T04:35:09;102073.53;;;8.34;63.59
27805;BME280;15183;51.350;11.102;2023-02-14T04:37:36;102071.94;;;8.23;63.44
27805;BME280;15183;51.350;11.102;2023-02-14T04:40:03;102066.19;;;8.02;63.74
27805;BME280;15183;51.350;11.102;2023-02-14T04:42:29;102077.63;;;8.10;63.99
27805;BME280;15183;51.350;11.102;2023-02-14T04:44:55;102097.00;;;8.19;63.80
27805;BME280;15183;51.350;11.102;2023-02-14T04:47:22;102096.50;;;8.16;63.90
27805;BME280;15183;51.350;11.102;2023-02-14T04:49:48;102095.28;;;8.10;63.76
27805;BME280;15183;51.350;11.102;2023-02-14T04:52:15;102070.13;;;7.97;63.84
27805;BME280;15183;51.350;11.102;2023-02-14T04:54:41;102078.78;;;8.08;63.75
27805;BME280;15183;51.350;11.102;2023-02-14T04:57:07;102057.28;;;8.03;63.64
27805;BME280;15183;51.350;11.102;2023-02-14T04:59:34;102071.84;;;8.07;63.71
27805;BME280;15183;51.350;11.102;2023-02-14T05:02:00;102038.34;;;7.89;63.55
27805;BME280;15183;51.350;11.102;2023-02-14T05:04:27;102049.44;;;7.93;63.85
27805;BME280;15183;51.350;11.102;2023-02-14T05:06:53;102083.13;;;8.17;64.12
27805;BME280;15183;51.350;11.102;2023-02-14T05:09:19;102039.34;;;7.88;63.73
27805;BME280;15183;51.350;11.102;2023-02-14T05:11:46;101993.09;;;7.58;63.46
27805;BME280;15183;51.350;11.102;2023-02-14T05:14:12;102038.72;;;7.94;63.64
27805;BME280;15183;51.350;11.102;2023-02-14T05:16:39;102073.25;;;8.19;63.51
27805;BME280;15183;51.350;11.102;2023-02-14T05:19:05;102058.66;;;8.07;63.42
27805;BME280;15183;51.350;11.102;2023-02-14T05:21:31;102076.50;;;8.13;63.91
27805;BME280;15183;51.350;11.102;2023-02-14T05:23:59;102064.59;;;8.09;63.75
27805;BME280;15183;51.350;11.102;2023-02-14T05:26:26;102050.50;;;8.00;63.70
27805;BME280;15183;51.350;11.102;2023-02-14T05:28:52;102066.03;;;8.03;63.71
27805;BME280;15183;51.350;11.102;2023-02-14T05:31:19;102058.72;;;7.79;63.26
27805;BME280;15183;51.350;11.102;2023-02-14T05:33:45;102064.44;;;7.74;63.71
27805;BME280;15183;51.350;11.102;2023-02-14T05:36:12;102062.59;;;7.66;64.04
27805;BME280;15183;51.350;11.102;2023-02-14T05:38:38;102072.16;;;7.67;63.90
27805;BME280;15183;51.350;11.102;2023-02-14T05:41:04;102066.22;;;7.65;63.80
27805;BME280;15183;51.350;11.102;2023-02-14T05:43:31;102050.28;;;7.57;64.08
27805;BME280;15183;51.350;11.102;2023-02-14T05:45:58;102028.13;;;7.50;64.26
27805;BME280;15183;51.350;11.102;2023-02-14T05:48:24;102045.72;;;7.59;63.80
27805;BME280;15183;51.350;11.102;2023-02-14T05:50:51;102050.50;;;7.64;64.02
27805;BME280;15183;51.350;11.102;2023-02-14T05:53:17;102055.19;;;7.70;63.69
27805;BME280;15183;51.350;11.102;2023-02-14T05:55:44;102075.16;;;7.73;63.69
27805;BME280;15183;51.350;11.102;2023-02-14T05:58:10;102050.69;;;7.62;63.77
27805;BME280;15183;51.350;11.102;2023-02-14T06:00:38;102035.44;;;7.56;63.67
27805;BME280;15183;51.350;11.102;2023-02-14T06:03:04;102066.59;;;7.71;63.55
27805;BME280;15183;51.350;11.102;2023-02-14T06:05:31;102083.47;;;7.78;63.69
27805;BME280;15183;51.350;11.102;2023-02-14T06:07:57;102061.91;;;7.64;63.61
27805;BME280;15183;51.350;11.102;2023-02-14T06:10:25;102071.00;;;7.70;63.73
27805;BME280;15183;51.350;11.102;2023-02-14T06:12:52;102067.56;;;7.70;63.55
27805;BME280;15183;51.350;11.102;2023-02-14T06:15:20;102070.41;;;7.76;63.43
27805;BME280;15183;51.350;11.102;2023-02-14T06:17:51;102053.91;;;7.56;63.21
27805;BME280;15183;51.350;11.102;2023-02-14T06:20:19;102077.38;;;7.77;63.31
27805;BME280;15183;51.350;11.102;2023-02-14T06:22:45;102088.81;;;7.86;63.42
27805;BME280;15183;51.350;11.102;2023-02-14T06:25:11;102061.13;;;7.72;63.47
27805;BME280;15183;51.350;11.102;2023-02-14T06:27:38;102097.78;;;7.93;63.34
27805;BME280;15183;51.350;11.102;2023-02-14T06:30:05;102102.47;;;8.00;63.69
27805;BME280;15183;51.350;11.102;2023-02-14T06:32:32;102091.91;;;8.00;63.36
27805;BME280;15183;51.350;11.102;2023-02-14T06:34:58;102092.97;;;8.07;63.04
27805;BME280;15183;51.350;11.102;2023-02-14T06:37:24;102078.84;;;7.98;62.89
27805;BME280;15183;51.350;11.102;2023-02-14T06:39:51;102066.72;;;7.87;63.20
27805;BME280;15183;51.350;11.102;2023-02-14T06:42:17;102090.94;;;8.01;63.01
27805;BME280;15183;51.350;11.102;2023-02-14T06:44:44;102092.22;;;7.96;63.18
27805;BME280;15183;51.350;11.102;2023-02-14T06:47:10;102098.75;;;7.92;62.98
27805;BME280;15183;51.350;11.102;2023-02-14T06:49:36;102093.72;;;7.81;63.15
27805;BME280;15183;51.350;11.102;2023-02-14T06:52:05;102084.69;;;7.65;63.10
27805;BME280;15183;51.350;11.102;2023-02-14T06:54:31;102089.34;;;7.53;63.46
27805;BME280;15183;51.350;11.102;2023-02-14T06:56:58;102083.00;;;7.46;63.68
27805;BME280;15183;51.350;11.102;2023-02-14T06:59:24;102066.47;;;7.26;63.42
27805;BME280;15183;51.350;11.102;2023-02-14T07:01:51;102074.38;;;7.26;63.30
27805;BME280;15183;51.350;11.102;2023-02-14T07:04:17;102090.41;;;7.33;63.35
27805;BME280;15183;51.350;11.102;2023-02-14T07:06:44;102081.63;;;7.14;63.84
27805;BME280;15183;51.350;11.102;2023-02-14T07:09:11;102033.38;;;6.86;63.46
27805;BME280;15183;51.350;11.102;2023-02-14T07:11:45;102018.03;;;6.71;63.85
27805;BME280;15183;51.350;11.102;2023-02-14T07:14:12;102024.97;;;6.72;63.52
27805;BME280;15183;51.350;11.102;2023-02-14T07:16:39;102091.03;;;7.17;63.77
27805;BME280;15183;51.350;11.102;2023-02-14T07:19:05;102092.88;;;7.16;63.81
27805;BME280;15183;51.350;11.102;2023-02-14T07:21:31;102072.78;;;7.05;63.81
27805;BME280;15183;51.350;11.102;2023-02-14T07:23:58;102068.41;;;6.96;63.78
27805;BME280;15183;51.350;11.102;2023-02-14T07:26:24;102030.22;;;6.72;63.92
27805;BME280;15183;51.350;11.102;2023-02-14T07:28:51;102049.91;;;6.78;63.66
27805;BME280;15183;51.350;11.102;2023-02-14T07:31:18;102019.28;;;6.67;64.07
27805;BME280;15183;51.350;11.102;2023-02-14T07:33:45;102083.81;;;7.19;63.52
27805;BME280;15183;51.350;11.102;2023-02-14T07:36:12;102073.81;;;7.22;63.83
27805;BME280;15183;51.350;11.102;2023-02-14T07:38:38;102048.47;;;7.12;63.61
27805;BME280;15183;51.350;11.102;2023-02-14T07:41:05;102072.78;;;7.33;63.37
27805;BME280;15183;51.350;11.102;2023-02-14T07:43:31;102082.31;;;7.44;63.48
27805;BME280;15183;51.350;11.102;2023-02-14T07:46:01;102045.13;;;7.19;63.71
27805;BME280;15183;51.350;11.102;2023-02-14T07:48:27;102087.50;;;7.54;63.30
27805;BME280;15183;51.350;11.102;2023-02-14T07:50:54;102068.53;;;7.50;63.39
27805;BME280;15183;51.350;11.102;2023-02-14T07:53:23;102026.66;;;7.19;62.81
27805;BME280;15183;51.350;11.102;2023-02-14T07:55:51;102051.09;;;7.39;63.22
27805;BME280;15183;51.350;11.102;2023-02-14T07:58:17;102036.41;;;7.37;63.04
27805;BME280;15183;51.350;11.102;2023-02-14T08:00:44;102057.13;;;7.50;63.18
27805;BME280;15183;51.350;11.102;2023-02-14T08:03:12;102075.28;;;7.53;63.16
27805;BME280;15183;51.350;11.102;2023-02-14T08:05:40;102064.53;;;7.46;63.49
27805;BME280;15183;51.350;11.102;2023-02-14T08:08:06;102089.63;;;7.50;63.58
27805;BME280;15183;51.350;11.102;2023-02-14T08:10:32;102075.59;;;7.50;63.69
27805;BME280;15183;51.350;11.102;2023-02-14T08:12:59;102076.56;;;7.49;63.63
27805;BME280;15183;51.350;11.102;2023-02-14T08:15:33;102072.16;;;7.49;63.44
27805;BME280;15183;51.350;11.102;2023-02-14T08:18:20;102088.69;;;7.42;63.30
27805;BME280;15183;51.350;11.102;2023-02-14T08:20:48;102074.38;;;7.26;63.47
27805;BME280;15183;51.350;11.102;2023-02-14T08:23:19;102054.81;;;7.19;63.80
27805;BME280;15183;51.350;11.102;2023-02-14T08:25:48;102073.09;;;7.30;63.53
27805;BME280;15183;51.350;11.102;2023-02-14T08:28:16;102035.31;;;7.12;63.67
27805;BME280;15183;51.350;11.102;2023-02-14T08:30:43;102009.16;;;7.00;63.78
27805;BME280;15183;51.350;11.102;2023-02-14T08:33:10;102038.44;;;7.25;63.38
27805;BME280;15183;51.350;11.102;2023-02-14T08:35:37;102048.69;;;7.28;63.71
27805;BME280;15183;51.350;11.102;2023-02-14T08:38:04;102065.78;;;7.24;63.65
27805;BME280;15183;51.350;11.102;2023-02-14T08:40:30;102035.97;;;7.14;63.91
27805;BME280;15183;51.350;11.102;2023-02-14T08:42:57;102032.78;;;7.20;63.97
27805;BME280;15183;51.350;11.102;2023-02-14T08:45:23;102023.19;;;7.19;64.01
27805;BME280;15183;51.350;11.102;2023-02-14T08:47:50;102053.50;;;7.51;63.84
27805;BME280;15183;51.350;11.102;2023-02-14T08:50:17;102008.22;;;7.37;64.10
27805;BME280;15183;51.350;11.102;2023-02-14T08:52:44;102057.00;;;7.88;63.53
27805;BME280;15183;51.350;11.102;2023-02-14T08:55:11;102055.53;;;7.93;63.37
27805;BME280;15183;51.350;11.102;2023-02-14T08:57:39;102062.94;;;8.08;63.55
27805;BME280;15183;51.350;11.102;2023-02-14T09:00:06;102061.97;;;8.09;62.96
27805;BME280;15183;51.350;11.102;2023-02-14T09:02:33;102038.72;;;7.94;63.34
27805;BME280;15183;51.350;11.102;2023-02-14T09:05:00;102011.88;;;7.99;63.38
27805;BME280;15183;51.350;11.102;2023-02-14T09:07:26;102053.94;;;8.19;63.03
27805;BME280;15183;51.350;11.102;2023-02-14T09:09:52;102071.94;;;8.23;62.87
27805;BME280;15183;51.350;11.102;2023-02-14T09:12:19;102050.81;;;8.23;63.18
27805;BME280;15183;51.350;11.102;2023-02-14T09:14:45;102041.59;;;8.28;63.01
27805;BME280;15183;51.350;11.102;2023-02-14T09:17:12;102051.03;;;8.30;63.27
27805;BME280;15183;51.350;11.102;2023-02-14T09:19:40;102056.06;;;8.42;63.26
27805;BME280;15183;51.350;11.102;2023-02-14T09:22:08;102008.66;;;8.14;62.91
27805;BME280;15183;51.350;11.102;2023-02-14T09:24:36;102042.22;;;8.21;62.52
27805;BME280;15183;51.350;11.102;2023-02-14T09:27:04;102039.63;;;8.03;62.95
27805;BME280;15183;51.350;11.102;2023-02-14T09:29:31;101995.09;;;7.82;63.17
27805;BME280;15183;51.350;11.102;2023-02-14T09:32:00;102057.09;;;8.22;62.92
27805;BME280;15183;51.350;11.102;2023-02-14T09:34:27;102020.47;;;8.01;63.10
27805;BME280;15183;51.350;11.102;2023-02-14T09:37:13;102043.16;;;8.12;62.91
27805;BME280;15183;51.350;11.102;2023-02-14T09:39:39;102066.72;;;8.32;63.25
27805;BME280;15183;51.350;11.102;2023-02-14T09:45:00;102073.88;;;8.39;63.24
27805;BME280;15183;51.350;11.102;2023-02-14T09:47:36;102063.19;;;8.41;63.45
27805;BME280;15183;51.350;11.102;2023-02-14T09:50:30;102043.88;;;8.49;63.40
27805;BME280;15183;51.350;11.102;2023-02-14T09:56:14;102057.41;;;9.07;63.18
27805;BME280;15183;51.350;11.102;2023-02-14T09:58:51;102051.38;;;9.31;62.86
27805;BME280;15183;51.350;11.102;2023-02-14T10:01:36;102008.22;;;9.31;62.62
27805;BME280;15183;51.350;11.102;2023-02-14T10:04:34;102035.88;;;9.78;62.64
27805;BME280;15183;51.350;11.102;2023-02-14T10:07:22;102009.75;;;9.66;62.28
27805;BME280;15183;51.350;11.102;2023-02-14T10:10:42;102032.75;;;10.07;62.39
27805;BME280;15183;51.350;11.102;2023-02-14T10:13:42;102020.59;;;10.21;62.56
27805;BME280;15183;51.350;11.102;2023-02-14T10:16:26;102012.47;;;10.31;62.07
27805;BME280;15183;51.350;11.102;2023-02-14T10:19:06;102022.25;;;10.47;62.15
27805;BME280;15183;51.350;11.102;2023-02-14T10:21:49;102041.22;;;10.67;62.13
27805;BME280;15183;51.350;11.102;2023-02-14T10:24:40;102003.63;;;10.72;61.91
27805;BME280;15183;51.350;11.102;2023-02-14T10:29:46;102019.47;;;11.12;61.04
27805;BME280;15183;51.350;11.102;2023-02-14T10:32:16;101977.28;;;11.02;60.75
27805;BME280;15183;51.350;11.102;2023-02-14T10:34:50;102026.13;;;11.39;60.78
27805;BME280;15183;51.350;11.102;2023-02-14T10:52:36;101990.38;;;11.88;59.98
27805;BME280;15183;51.350;11.102;2023-02-14T10:56:15;101970.34;;;11.86;60.01
27805;BME280;15183;51.350;11.102;2023-02-14T10:58:17;102010.06;;;12.18;60.58
27805;BME280;15183;51.350;11.102;2023-02-14T11:01:01;101990.34;;;12.12;59.77
27805;BME280;15183;51.350;11.102;2023-02-14T11:03:29;101969.47;;;12.09;60.15
27805;BME280;15183;51.350;11.102;2023-02-14T11:05:55;102006.22;;;12.20;59.67
27805;BME280;15183;51.350;11.102;2023-02-14T11:08:36;101983.47;;;12.02;60.18
27805;BME280;15183;51.350;11.102;2023-02-14T11:11:34;101982.00;;;12.00;60.58
27805;BME280;15183;51.350;11.102;2023-02-14T11:14:26;102003.63;;;12.12;60.27
27805;BME280;15183;51.350;11.102;2023-02-14T11:16:56;101964.38;;;11.84;60.20
27805;BME280;15183;51.350;11.102;2023-02-14T11:21:58;101979.50;;;11.98;59.76
27805;BME280;15183;51.350;11.102;2023-02-14T11:24:32;101984.53;;;11.93;59.67
27805;BME280;15183;51.350;11.102;2023-02-14T11:29:43;101984.66;;;12.00;60.00
27805;BME280;15183;51.350;11.102;2023-02-14T11:32:24;101987.25;;;12.08;59.38
27805;BME280;15183;51.350;11.102;2023-02-14T11:35:02;101948.53;;;11.91;58.63
27805;BME280;15183;51.350;11.102;2023-02-14T11:37:58;101941.66;;;11.96;59.49
27805;BME280;15183;51.350;11.102;2023-02-14T11:40:36;101972.31;;;12.22;59.24
27805;BME280;15183;51.350;11.102;2023-02-14T11:45:38;101958.19;;;12.22;58.67
27805;BME280;15183;51.350;11.102;2023-02-14T11:48:21;101944.84;;;12.15;57.97
27805;BME280;15183;51.350;11.102;2023-02-14T11:50:55;101956.75;;;12.19;57.99
27805;BME280;15183;51.350;11.102;2023-02-14T11:53:38;101959.13;;;12.14;58.02
27805;BME280;15183;51.350;11.102;2023-02-14T11:56:08;101930.22;;;11.96;57.87
27805;BME280;15183;51.350;11.102;2023-02-14T12:01:28;101951.75;;;11.86;57.85
27805;BME280;15183;51.350;11.102;2023-02-14T12:04:02;101949.53;;;11.75;58.30
27805;BME280;15183;51.350;11.102;2023-02-14T12:06:34;101942.75;;;11.72;58.05
27805;BME280;15183;51.350;11.102;2023-02-14T12:09:12;101926.41;;;11.60;58.35
27805;BME280;15183;51.350;11.102;2023-02-14T12:12:00;101927.06;;;11.62;58.41
27805;BME280;15183;51.350;11.102;2023-02-14T12:14:35;101927.06;;;11.62;58.07
27805;BME280;15183;51.350;11.102;2023-02-14T12:19:54;101927.63;;;11.72;58.71
27805;BME280;15183;51.350;11.102;2023-02-14T12:22:32;101904.00;;;11.63;58.81
27805;BME280;15183;51.350;11.102;2023-02-14T12:28:05;101913.44;;;11.80;58.49
27805;BME280;15183;51.350;11.102;2023-02-14T12:30:34;101900.97;;;11.66;58.16
27805;BME280;15183;51.350;11.102;2023-02-14T12:33:01;101923.81;;;11.90;58.62
27805;BME280;15183;51.350;11.102;2023-02-14T12:36:02;101922.06;;;11.97;58.53
27805;BME280;15183;51.350;11.102;2023-02-14T12:39:14;101918.06;;;12.01;58.38
27805;BME280;15183;51.350;11.102;2023-02-14T12:42:09;101847.78;;;11.59;58.41
27805;BME280;15183;51.350;11.102;2023-02-14T12:45:40;101912.75;;;12.01;58.40
27805;BME280;15183;51.350;11.102;2023-02-14T12:48:29;101898.78;;;11.99;58.36
27805;BME280;15183;51.350;11.102;2023-02-14T12:57:34;101884.69;;;11.99;58.37
27805;BME280;15183;51.350;11.102;2023-02-14T13:06:29;101885.00;;;12.19;58.53
27805;BME280;15183;51.350;11.102;2023-02-14T13:15:19;101869.94;;;12.26;58.05
27805;BME280;15183;51.350;11.102;2023-02-14T13:17:57;101857.69;;;12.10;58.41
27805;BME280;15183;51.350;11.102;2023-02-14T13:20:48;101867.13;;;12.13;58.48
27805;BME280;15183;51.350;11.102;2023-02-14T13:23:29;101843.09;;;11.91;57.90
27805;BME280;15183;51.350;11.102;2023-02-14T13:26:28;101855.91;;;11.87;58.29
27805;BME280;15183;51.350;11.102;2023-02-14T13:29:10;101834.59;;;11.66;58.03
27805;BME280;15183;51.350;11.102;2023-02-14T13:31:39;101850.44;;;11.74;58.41
27805;BME280;15183;51.350;11.102;2023-02-14T13:34:27;101829.47;;;11.64;58.52
27805;BME280;15183;51.350;11.102;2023-02-14T13:36:59;101832.69;;;11.75;58.77
27805;BME280;15183;51.350;11.102;2023-02-14T13:39:45;101847.59;;;11.91;58.80
27805;BME280;15183;51.350;11.102;2023-02-14T13:51:16;101845.59;;;11.63;58.23
27805;BME280;15183;51.350;11.102;2023-02-14T13:53:47;101812.50;;;11.35;58.04
27805;BME280;15183;51.350;11.102;2023-02-14T13:58:58;101827.53;;;11.43;58.97
27805;BME280;15183;51.350;11.102;2023-02-14T14:01:43;101786.59;;;11.07;58.64
27805;BME280;15183;51.350;11.102;2023-02-14T14:12:36;101829.22;;;10.82;58.63
27805;BME280;15183;51.350;11.102;2023-02-14T14:17:40;101821.84;;;10.46;59.00
27805;BME280;15183;51.350;11.102;2023-02-14T14:22:51;101842.47;;;10.19;59.45
27805;BME280;15183;51.350;11.102;2023-02-14T14:25:40;101843.06;;;9.98;59.06
27805;BME280;15183;51.350;11.102;2023-02-14T14:28:20;101848.22;;;9.91;60.07
27805;BME280;15183;51.350;11.102;2023-02-14T14:30:48;101831.88;;;9.79;60.22
27805;BME280;15183;51.350;11.102;2023-02-14T14:33:26;101844.94;;;9.89;60.45
27805;BME280;15183;51.350;11.102;2023-02-14T14:36:00;101841.09;;;9.92;60.29
27805;BME280;15183;51.350;11.102;2023-02-14T14:38:29;101804.25;;;9.74;59.85
27805;BME280;15183;51.350;11.102;2023-02-14T14:40:55;101833.50;;;9.89;60.02
27805;BME280;15183;51.350;11.102;2023-02-14T14:43:34;101822.75;;;9.82;60.19
27805;BME280;15183;51.350;11.102;2023-02-14T14:46:02;101835.00;;;9.91;60.30
27805;BME280;15183;51.350;11.102;2023-02-14T14:48:43;101811.00;;;9.84;60.62
27805;BME280;15183;51.350;11.102;2023-02-14T14:51:34;101828.16;;;9.97;60.95
27805;BME280;15183;51.350;11.102;2023-02-14T14:54:04;101798.63;;;9.77;60.71
27805;BME280;15183;51.350;11.102;2023-02-14T14:56:36;101812.28;;;9.97;60.58
27805;BME280;15183;51.350;11.102;2023-02-14T14:59:32;101795.28;;;9.91;60.60
27805;BME280;15183;51.350;11.102;2023-02-14T15:02:25;101795.09;;;9.93;60.19
27805;BME280;15183;51.350;11.102;2023-02-14T15:04:52;101773.50;;;9.73;60.55
27805;BME280;15183;51.350;11.102;2023-02-14T15:07:33;101792.31;;;9.86;60.70